TimeCST,TemperatureF,Dew PointF,Humidity,Sea Level PressureIn,VisibilityMPH,Wind Direction,Wind SpeedMPH,Gust SpeedMPH,PrecipitationIn,Events,Conditions,WindDirDegrees,DateUTC
12:00 AM,23.0,21.2,93,29.68,1.0,Calm,Calm,-,N/A,Snow,Light Snow,0,2013-01-29 06:00:00
12:15 AM,23.0,21.2,93,29.68,1.0,Calm,Calm,-,0.01,Snow,Light Snow,0,2013-01-29 06:15:00
12:35 AM,23.0,21.2,93,29.67,1.2,Calm,Calm,-,0.02,Snow,Light Snow,0,2013-01-29 06:35:00
12:55 AM,21.2,21.2,100,29.67,1.5,Calm,Calm,-,0.02,Snow,Light Snow,0,2013-01-29 06:55:00
1:15 AM,21.2,21.2,100,29.67,1.0,NW,6.9,-,N/A,Snow,Light Snow,320,2013-01-29 07:15:00
1:35 AM,21.2,19.4,93,29.66,2.0,NNW,5.8,-,0.01,Snow,Light Snow,340,2013-01-29 07:35:00
1:55 AM,21.2,19.4,93,29.65,3.0,North,6.9,-,0.01,Snow,Light Snow,360,2013-01-29 07:55:00
2:15 AM,21.2,19.4,93,29.65,4.0,NNW,8.1,-,N/A,,Overcast,340,2013-01-29 08:15:00
2:55 AM,21.2,19.4,93,29.65,4.0,North,5.8,-,N/A,,Overcast,350,2013-01-29 08:55:00
3:15 AM,21.2,19.4,93,29.64,4.0,North,5.8,-,N/A,,Overcast,350,2013-01-29 09:15:00
3:35 AM,19.4,19.4,100,29.64,4.0,North,4.6,-,N/A,,Overcast,350,2013-01-29 09:35:00
4:00 AM,19.4,19.4,100,29.65,4.0,Calm,Calm,-,N/A,,Mostly Cloudy,0,2013-01-29 10:00:00
4:15 AM,19.4,17.6,93,29.65,4.0,Calm,Calm,-,N/A,,Mostly Cloudy,0,2013-01-29 10:15:00
4:35 AM,19.4,17.6,93,29.65,4.0,Calm,Calm,-,N/A,,Overcast,0,2013-01-29 10:35:00
5:15 AM,19.4,17.6,93,29.66,3.0,NNW,6.9,-,N/A,,Overcast,330,2013-01-29 11:15:00
5:35 AM,19.4,17.6,93,29.65,3.0,NNW,5.8,-,N/A,,Overcast,330,2013-01-29 11:35:00
5:56 AM,19.4,17.6,93,29.64,3.0,NNW,6.9,-,N/A,,Overcast,330,2013-01-29 11:56:00
6:15 AM,19.4,17.6,93,29.63,3.0,North,8.1,-,N/A,,Overcast,350,2013-01-29 12:15:00
6:35 AM,19.4,17.6,93,29.62,3.0,NNW,9.2,-,N/A,,Overcast,340,2013-01-29 12:35:00
6:56 AM,19.4,17.6,93,29.62,3.0,NNW,8.1,-,N/A,,Overcast,340,2013-01-29 12:56:00
7:15 AM,19.4,17.6,93,29.65,3.0,NW,5.8,-,N/A,,Overcast,320,2013-01-29 13:15:00
7:35 AM,19.4,17.6,93,29.67,3.0,NW,8.1,-,N/A,,Overcast,310,2013-01-29 13:35:00
7:55 AM,19.4,17.6,93,29.66,0.5,NW,8.1,-,N/A,Fog,Light Freezing Fog,310,2013-01-29 13:55:00
8:15 AM,19.4,19.4,100,29.67,0.2,NW,8.1,-,N/A,Fog,Light Freezing Fog,320,2013-01-29 14:15:00
8:35 AM,19.4,19.4,100,29.69,0.2,NW,8.1,-,N/A,Fog,Light Freezing Fog,310,2013-01-29 14:35:00
8:55 AM,19.4,19.4,100,29.69,0.2,NW,8.1,-,N/A,Fog,Light Freezing Fog,320,2013-01-29 14:55:00
9:15 AM,19.4,19.4,100,29.69,0.2,NW,4.6,-,N/A,Fog,Light Freezing Fog,310,2013-01-29 15:15:00
9:35 AM,21.2,19.4,93,29.69,0.2,NW,6.9,-,N/A,Fog,Light Freezing Fog,320,2013-01-29 15:35:00
9:55 AM,21.2,19.4,93,29.70,0.2,WNW,4.6,-,N/A,Fog,Light Freezing Fog,300,2013-01-29 15:55:00
10:15 AM,21.2,19.4,93,29.71,0.2,NW,6.9,-,N/A,Fog,Light Freezing Fog,310,2013-01-29 16:15:00
10:35 AM,21.2,19.4,93,29.72,1.0,WNW,6.9,-,N/A,,Overcast,290,2013-01-29 16:35:00
10:55 AM,21.2,19.4,93,29.72,1.2,WNW,4.6,-,N/A,,Overcast,300,2013-01-29 16:55:00
11:15 AM,21.2,17.6,86,29.72,1.8,WNW,6.9,-,N/A,,Overcast,300,2013-01-29 17:15:00
11:35 AM,21.2,19.4,93,29.72,2.5,NW,6.9,-,N/A,,Overcast,310,2013-01-29 17:35:00
11:55 AM,21.2,19.4,93,29.72,3.0,NW,8.1,-,N/A,,Overcast,310,2013-01-29 17:55:00
12:16 PM,21.2,19.4,93,29.71,3.0,NW,6.9,-,N/A,,Overcast,320,2013-01-29 18:16:00
12:35 PM,21.2,19.4,93,29.73,3.0,NW,8.1,-,N/A,,Overcast,320,2013-01-29 18:35:00
12:55 PM,21.2,19.4,93,29.73,4.0,NW,8.1,-,N/A,,Overcast,310,2013-01-29 18:55:00
1:15 PM,21.2,19.4,93,29.74,4.0,NW,8.1,-,N/A,,Overcast,310,2013-01-29 19:15:00
1:35 PM,21.2,19.4,93,29.74,5.0,NW,9.2,-,N/A,,Overcast,320,2013-01-29 19:35:00
1:55 PM,21.2,19.4,93,29.73,4.0,NW,11.5,-,N/A,,Overcast,320,2013-01-29 19:55:00
2:15 PM,21.2,19.4,93,29.74,4.0,NNW,11.5,-,N/A,,Overcast,330,2013-01-29 20:15:00
2:35 PM,21.2,17.6,86,29.74,4.0,NNW,12.7,-,N/A,,Overcast,330,2013-01-29 20:35:00
2:55 PM,21.2,17.6,86,29.75,4.0,NNW,9.2,-,N/A,,Overcast,330,2013-01-29 20:55:00
3:15 PM,21.2,17.6,86,29.75,5.0,NNW,11.5,-,N/A,,Overcast,330,2013-01-29 21:15:00
3:55 PM,19.4,17.6,93,29.78,7.0,NNW,8.1,-,N/A,,Overcast,330,2013-01-29 21:55:00
4:15 PM,19.4,17.6,93,29.78,7.0,NNW,8.1,-,N/A,,Overcast,330,2013-01-29 22:15:00
4:35 PM,19.4,17.6,93,29.79,7.0,NNW,8.1,-,N/A,Snow,Light Snow,330,2013-01-29 22:35:00
4:55 PM,19.4,17.6,93,29.79,5.0,NW,6.9,-,N/A,Snow,Light Snow,320,2013-01-29 22:55:00
5:15 PM,19.4,15.8,86,29.80,4.0,NW,10.4,-,N/A,Snow,Light Snow,310,2013-01-29 23:15:00
5:35 PM,17.6,15.8,93,29.81,5.0,WNW,9.2,-,N/A,Snow,Light Snow,300,2013-01-29 23:35:00
5:55 PM,17.6,15.8,93,29.82,5.0,WNW,8.1,-,N/A,Snow,Light Snow,300,2013-01-29 23:55:00
6:15 PM,17.6,15.8,93,29.81,7.0,WNW,9.2,-,N/A,Snow,Light Snow,300,2013-01-30 00:15:00
6:35 PM,15.8,14.0,93,29.80,7.0,NW,11.5,-,N/A,Snow,Light Snow,310,2013-01-30 00:35:00
6:55 PM,15.8,12.2,86,29.80,7.0,NW,13.8,-,N/A,Snow,Light Snow,310,2013-01-30 00:55:00
7:15 PM,14.0,12.2,93,29.82,10.0,NW,9.2,-,N/A,,Overcast,320,2013-01-30 01:15:00
7:35 PM,14.0,10.4,86,29.85,7.0,NW,9.2,-,N/A,,Overcast,310,2013-01-30 01:35:00
7:55 PM,12.2,10.4,92,29.87,7.0,NW,10.4,-,N/A,Snow,Light Snow,310,2013-01-30 01:55:00
8:15 PM,12.2,10.4,92,29.87,7.0,NW,11.5,-,N/A,Snow,Light Snow,310,2013-01-30 02:15:00
8:55 PM,12.2,8.6,85,29.88,10.0,NW,9.2,-,N/A,,Overcast,310,2013-01-30 02:55:00
9:15 PM,10.4,8.6,92,29.86,7.0,NW,12.7,18.4,N/A,Snow,Light Snow,310,2013-01-30 03:15:00
9:35 PM,10.4,8.6,92,29.85,5.0,NW,13.8,-,N/A,Snow,Light Snow,320,2013-01-30 03:35:00
9:55 PM,10.4,8.6,92,29.86,5.0,NW,11.5,17.3,N/A,Snow,Light Snow,310,2013-01-30 03:55:00
10:15 PM,10.4,6.8,85,29.86,7.0,NW,13.8,-,N/A,Snow,Light Snow,310,2013-01-30 04:15:00
10:35 PM,10.4,6.8,85,29.86,7.0,NW,11.5,19.6,N/A,Snow,Light Snow,310,2013-01-30 04:35:00
10:55 PM,10.4,6.8,85,29.86,5.0,NW,13.8,-,N/A,Snow,Light Snow,320,2013-01-30 04:55:00
11:15 PM,8.6,6.8,92,29.87,7.0,NW,10.4,-,N/A,Snow,Light Snow,320,2013-01-30 05:15:00
11:35 PM,8.6,6.8,92,29.88,7.0,NW,10.4,-,N/A,Snow,Light Snow,310,2013-01-30 05:35:00
11:55 PM,8.6,6.8,92,29.89,10.0,NW,11.5,-,N/A,Snow,Light Snow,320,2013-01-30 05:55:00